Time;durP1;ratioP1;P1;durP2;ratioP2;P2;SDS_P1;SDS_P2;PMS_P1;PMS_P2;Temp;Humidity;BMP_temperature;BMP_pressure;BME280_temperature;BME280_humidity;BME280_pressure;Samples;Min_cycle;Max_cycle;Signal;HPM_P1;HPM_P2
2024/04/03 00:00:00;;;;;;;1.30;1.20;;;4.20;99.90;;;;;;5045659;28;20021;-38
2024/04/03 00:02:26;;;;;;;2.00;1.10;;;4.20;99.90;;;;;;5043981;28;20048;-33
2024/04/03 00:04:52;;;;;;;1.25;1.20;;;4.20;99.90;;;;;;5044545;28;20029;-35
2024/04/03 00:07:18;;;;;;;1.30;1.20;;;4.10;99.90;;;;;;5044407;28;20108;-35
2024/04/03 00:09:44;;;;;;;1.55;1.45;;;4.10;99.90;;;;;;5044780;28;20143;-37
2024/04/03 00:12:10;;;;;;;1.48;1.10;;;4.10;99.90;;;;;;5043629;28;20021;-34
2024/04/03 00:14:36;;;;;;;1.38;1.08;;;4.00;99.90;;;;;;5046501;28;20025;-38
2024/04/03 00:17:01;;;;;;;1.08;0.98;;;4.00;99.90;;;;;;5043334;28;20083;-33
2024/04/03 00:19:27;;;;;;;0.90;0.90;;;3.90;99.90;;;;;;5043003;28;20063;-42
2024/04/03 00:21:53;;;;;;;0.90;0.90;;;3.90;99.90;;;;;;5045113;28;20536;-41
2024/04/03 00:24:18;;;;;;;1.20;1.00;;;3.80;99.90;;;;;;5045721;28;20021;-41
2024/04/03 00:26:44;;;;;;;1.33;1.17;;;3.40;99.90;;;;;;5037844;28;20036;-41
2024/04/03 00:29:09;;;;;;;1.15;1.15;;;3.40;99.90;;;;;;5043626;28;20025;-41
2024/04/03 00:31:38;;;;;;;1.33;1.20;;;3.50;99.90;;;;;;5058274;28;20029;-39
2024/04/03 00:34:04;;;;;;;1.35;1.27;;;3.40;99.90;;;;;;5058315;28;20017;-41
2024/04/03 00:36:30;;;;;;;1.75;1.42;;;3.20;99.90;;;;;;5042971;28;20032;-40
2024/04/03 00:38:56;;;;;;;1.23;1.15;;;3.30;99.90;;;;;;5044114;28;20430;-42
2024/04/03 00:41:22;;;;;;;1.10;1.10;;;3.40;99.90;;;;;;5044293;28;20111;-40
2024/04/03 00:43:50;;;;;;;1.33;1.23;;;3.50;99.90;;;;;;5045306;28;20218;-42
2024/04/03 00:46:17;;;;;;;1.10;1.10;;;3.50;99.90;;;;;;5043600;28;20453;-38
2024/04/03 00:48:43;;;;;;;1.65;1.05;;;3.60;99.90;;;;;;5043857;28;20036;-36
2024/04/03 00:51:10;;;;;;;2.17;1.15;;;3.60;99.90;;;;;;5043048;28;20025;-39
2024/04/03 00:53:37;;;;;;;2.00;1.08;;;3.60;99.90;;;;;;5042673;28;20025;-38
2024/04/03 00:56:07;;;;;;;0.98;0.95;;;3.70;99.90;;;;;;5043090;28;20044;-41
2024/04/03 00:58:34;;;;;;;1.10;1.10;;;3.70;99.90;;;;;;5044372;28;20404;-41
2024/04/03 01:01:00;;;;;;;2.03;1.17;;;3.70;99.90;;;;;;5035640;28;20156;-37
2024/04/03 01:03:26;;;;;;;0.98;0.98;;;3.60;99.90;;;;;;5022379;28;20856;-41
2024/04/03 01:06:01;;;;;;;4.28;1.10;;;3.50;99.90;;;;;;5024052;28;20104;-43
2024/04/03 01:08:27;;;;;;;1.17;1.08;;;3.50;99.90;;;;;;5023681;28;20040;-41
2024/04/03 01:10:53;;;;;;;1.02;1.02;;;3.30;99.90;;;;;;5022776;28;20518;-40
2024/04/03 01:13:19;;;;;;;1.98;1.33;;;2.80;99.90;;;;;;5022619;28;20766;-40
2024/04/03 01:15:45;;;;;;;1.40;1.30;;;2.70;99.90;;;;;;5023482;28;20109;-41
2024/04/03 01:18:10;;;;;;;3.30;1.50;;;2.80;99.90;;;;;;5024201;28;20026;-40
2024/04/03 01:20:36;;;;;;;1.92;1.08;;;2.90;99.90;;;;;;5022203;28;20030;-41
2024/04/03 01:23:02;;;;;;;1.35;1.15;;;2.90;99.90;;;;;;5021653;28;20071;-42
2024/04/03 01:25:27;;;;;;;1.08;1.00;;;2.90;99.90;;;;;;5024164;28;20038;-42
2024/04/03 01:27:53;;;;;;;0.93;0.93;;;3.00;99.90;;;;;;5023517;28;20439;-40
2024/04/03 01:30:18;;;;;;;1.15;1.13;;;3.00;99.90;;;;;;5023581;28;20087;-35
2024/04/03 01:32:44;;;;;;;0.98;0.98;;;3.10;99.90;;;;;;5024449;28;20594;-35
2024/04/03 01:35:10;;;;;;;1.23;1.20;;;3.10;99.90;;;;;;5023642;28;20518;-36
2024/04/03 01:37:36;;;;;;;1.10;1.05;;;3.20;99.90;;;;;;5023547;28;20036;-36
2024/04/03 01:40:01;;;;;;;0.93;0.93;;;3.20;99.90;;;;;;5026460;28;20029;-34
2024/04/03 01:42:27;;;;;;;1.23;1.13;;;3.20;99.90;;;;;;5040052;28;20030;-35
2024/04/03 01:44:53;;;;;;;1.10;1.10;;;3.20;99.90;;;;;;5021597;28;20101;-36
2024/04/03 01:47:18;;;;;;;1.17;1.02;;;3.20;99.90;;;;;;5019690;28;20041;-38
2024/04/03 01:49:44;;;;;;;1.52;1.10;;;3.20;99.90;;;;;;5023715;28;20021;-34
2024/04/03 01:52:09;;;;;;;1.08;1.00;;;3.30;99.90;;;;;;5023357;28;20075;-34
2024/04/03 01:54:35;;;;;;;0.88;0.88;;;3.30;99.90;;;;;;5023978;28;20028;-33
2024/04/03 01:57:01;;;;;;;0.93;0.93;;;3.20;99.90;;;;;;5023833;28;20391;-36
2024/04/03 01:59:26;;;;;;;2.90;1.50;;;3.30;99.90;;;;;;5022710;28;20030;-34
2024/04/03 02:01:52;;;;;;;0.85;0.85;;;3.20;99.90;;;;;;5035333;28;20148;-34
2024/04/03 02:04:17;;;;;;;1.38;1.27;;;3.20;99.90;;;;;;5042635;28;20028;-36
2024/04/03 02:06:43;;;;;;;0.90;0.90;;;3.30;99.90;;;;;;5043357;28;20029;-37
2024/04/03 02:09:09;;;;;;;0.88;0.88;;;3.20;99.90;;;;;;5058287;28;20395;-35
2024/04/03 02:11:34;;;;;;;1.65;1.23;;;3.10;99.90;;;;;;5042848;28;20033;-33
2024/04/03 02:14:00;;;;;;;2.25;1.10;;;2.80;99.90;;;;;;5042239;28;20104;-39
2024/04/03 02:16:27;;;;;;;0.88;0.88;;;2.80;99.90;;;;;;5043122;28;20464;-36
2024/04/03 02:18:53;;;;;;;0.82;0.82;;;2.90;99.90;;;;;;5043465;28;20364;-36
2024/04/03 02:21:18;;;;;;;0.98;0.98;;;2.90;99.90;;;;;;5042826;28;20036;-34
2024/04/03 02:23:44;;;;;;;0.95;0.95;;;2.90;99.90;;;;;;5042257;28;20040;-38
2024/04/03 02:26:10;;;;;;;0.80;0.80;;;2.90;99.90;;;;;;5042216;28;20040;-35
2024/04/03 02:28:35;;;;;;;1.15;1.00;;;2.70;99.90;;;;;;5044183;28;20094;-39
2024/04/03 02:31:02;;;;;;;1.38;1.02;;;2.70;99.90;;;;;;5042043;28;20699;-41
2024/04/03 02:33:28;;;;;;;1.30;0.88;;;2.70;99.90;;;;;;5045632;28;20028;-40
2024/04/03 02:35:54;;;;;;;0.93;0.88;;;2.70;99.90;;;;;;5044702;28;20693;-42
2024/04/03 02:38:20;;;;;;;1.25;1.15;;;2.70;99.90;;;;;;5047203;28;20664;-34
2024/04/03 02:40:45;;;;;;;1.17;1.08;;;2.70;99.90;;;;;;5045075;28;20029;-33
2024/04/03 02:43:11;;;;;;;2.67;1.10;;;2.80;99.90;;;;;;5046163;28;20036;-37
2024/04/03 02:45:36;;;;;;;1.10;1.10;;;2.80;99.90;;;;;;5047194;28;20070;-37
2024/04/03 02:48:02;;;;;;;1.17;1.10;;;2.80;99.90;;;;;;5046193;28;20539;-42
2024/04/03 02:50:31;;;;;;;1.38;1.27;;;2.80;99.90;;;;;;5043232;28;20049;-42
2024/04/03 02:52:58;;;;;;;1.92;1.20;;;2.80;99.90;;;;;;5044721;28;20078;-38
2024/04/03 02:55:24;;;;;;;1.05;1.00;;;2.80;99.90;;;;;;5046337;28;20394;-41
2024/04/03 02:57:49;;;;;;;1.27;1.17;;;2.70;99.90;;;;;;5040491;28;20021;-40
2024/04/03 03:00:15;;;;;;;0.93;0.93;;;2.80;99.90;;;;;;5050175;28;20077;-40
2024/04/03 03:02:41;;;;;;;1.10;1.10;;;2.80;99.90;;;;;;5027222;28;20025;-37
2024/04/03 03:05:06;;;;;;;2.25;1.40;;;2.80;99.90;;;;;;5025760;28;20088;-40
2024/04/03 03:07:32;;;;;;;1.75;1.20;;;2.70;99.90;;;;;;5025156;28;20104;-41
2024/04/03 03:09:58;;;;;;;2.88;1.30;;;2.70;99.90;;;;;;5024696;28;20032;-40
2024/04/03 03:12:23;;;;;;;1.40;1.40;;;2.70;99.90;;;;;;5025582;28;20391;-42
2024/04/03 03:14:49;;;;;;;2.63;1.20;;;2.80;99.90;;;;;;5026001;28;20036;-42
2024/04/03 03:17:14;;;;;;;1.30;1.08;;;2.80;99.90;;;;;;5025755;28;20463;-41
2024/04/03 03:19:40;;;;;;;1.20;0.93;;;2.70;99.90;;;;;;5025666;28;20031;-41
2024/04/03 03:22:06;;;;;;;1.92;1.20;;;2.70;99.90;;;;;;5022762;28;20037;-41
2024/04/03 03:24:32;;;;;;;1.50;1.40;;;2.50;99.90;;;;;;5025551;28;20100;-40
2024/04/03 03:26:57;;;;;;;1.10;1.10;;;2.60;99.90;;;;;;5024507;28;20116;-42
2024/04/03 03:29:23;;;;;;;3.45;1.10;;;2.60;99.90;;;;;;5041694;28;20029;-39
2024/04/03 03:31:48;;;;;;;1.58;1.10;;;2.40;99.90;;;;;;5032816;28;20021;-41
2024/04/03 03:34:14;;;;;;;0.90;0.90;;;2.30;99.90;;;;;;5060235;28;20020;-39
2024/04/03 03:36:40;;;;;;;0.93;0.93;;;2.40;99.90;;;;;;5045081;28;20025;-42
2024/04/03 03:39:05;;;;;;;0.90;0.90;;;2.40;99.90;;;;;;5045399;28;20104;-38
2024/04/03 03:41:31;;;;;;;1.65;1.02;;;2.50;99.90;;;;;;5044635;28;20025;-41
2024/04/03 03:43:57;;;;;;;0.98;0.98;;;2.40;99.90;;;;;;5044168;28;20086;-40
2024/04/03 03:46:22;;;;;;;1.00;1.00;;;2.40;99.90;;;;;;5043925;28;20016;-41
2024/04/03 03:54:16;;;;;;;1.85;1.00;;;2.30;99.90;;;;;;5046104;28;20806;-40
2024/04/03 03:56:42;;;;;;;1.50;1.40;;;2.30;99.90;;;;;;5040004;28;20068;-38
2024/04/03 03:59:07;;;;;;;1.10;1.10;;;2.20;99.90;;;;;;5045333;28;20032;-34
2024/04/03 04:01:33;;;;;;;1.20;1.10;;;2.30;99.90;;;;;;5044863;28;20033;-36
2024/04/03 04:03:58;;;;;;;1.45;1.08;;;2.30;99.90;;;;;;5038814;28;20061;-40
2024/04/03 04:06:24;;;;;;;1.00;1.00;;;2.40;99.90;;;;;;5045090;28;20055;-37
2024/04/03 04:08:50;;;;;;;1.35;1.25;;;2.50;99.90;;;;;;5044402;28;20028;-34
2024/04/03 04:11:15;;;;;;;1.67;1.40;;;2.50;99.90;;;;;;5044452;28;20110;-36
2024/04/03 04:13:41;;;;;;;1.60;1.15;;;2.50;99.90;;;;;;5044054;28;20091;-36
2024/04/03 04:16:06;;;;;;;1.15;1.05;;;2.50;99.90;;;;;;5043904;28;20120;-35
2024/04/03 04:18:32;;;;;;;4.50;1.35;;;2.30;99.90;;;;;;5042844;28;20511;-35
2024/04/03 04:20:58;;;;;;;0.90;0.90;;;2.30;99.90;;;;;;5045478;28;20028;-34
2024/04/03 04:23:24;;;;;;;0.95;0.95;;;2.30;99.90;;;;;;5042873;28;20089;-34
2024/04/03 04:25:55;;;;;;;1.33;1.20;;;2.40;99.90;;;;;;5044294;28;20033;-36
2024/04/03 04:28:22;;;;;;;1.00;1.00;;;2.50;99.90;;;;;;5045133;28;20029;-33
2024/04/03 04:30:56;;;;;;;1.15;1.13;;;2.50;99.90;;;;;;5043146;28;20079;-35
2024/04/03 04:33:21;;;;;;;0.90;0.90;;;2.50;99.90;;;;;;5041194;28;20027;-34
2024/04/03 04:35:54;;;;;;;1.42;1.02;;;2.50;99.90;;;;;;5043668;28;20025;-36
2024/04/03 04:38:21;;;;;;;1.85;1.52;;;2.30;99.90;;;;;;5043545;28;20068;-35
2024/04/03 04:41:01;;;;;;;0.93;0.93;;;2.10;99.90;;;;;;5042410;28;20037;-37
2024/04/03 04:43:28;;;;;;;3.58;1.55;;;2.00;99.90;;;;;;5055585;28;20035;-33
2024/04/03 04:45:58;;;;;;;1.23;1.15;;;1.90;99.90;;;;;;5042026;28;20035;-39
2024/04/03 04:48:28;;;;;;;2.92;1.10;;;1.90;99.90;;;;;;5044304;28;20055;-34
2024/04/03 04:50:57;;;;;;;1.30;1.20;;;2.00;99.90;;;;;;5042986;28;20037;-33
2024/04/03 04:53:23;;;;;;;1.33;1.33;;;2.10;99.90;;;;;;5043764;28;20426;-33
2024/04/03 04:56:09;;;;;;;1.65;1.10;;;2.20;99.90;;;;;;5043113;28;20120;-36
2024/04/03 04:58:34;;;;;;;1.65;1.55;;;2.30;99.90;;;;;;5040652;28;20517;-33
2024/04/03 05:01:05;;;;;;;1.67;1.25;;;2.30;99.90;;;;;;5042751;28;20045;-40
2024/04/03 05:03:31;;;;;;;1.50;1.30;;;2.40;99.90;;;;;;5043964;28;20785;-34
2024/04/03 05:05:57;;;;;;;1.42;1.35;;;2.40;99.90;;;;;;5043848;28;20056;-35
2024/04/03 05:08:23;;;;;;;1.48;1.48;;;2.50;99.90;;;;;;5043729;28;20025;-41
2024/04/03 05:10:59;;;;;;;2.08;1.35;;;2.60;99.90;;;;;;5043851;28;20139;-41
2024/04/03 05:13:30;;;;;;;1.55;1.40;;;2.50;99.90;;;;;;5043567;28;20471;-41
2024/04/03 05:15:56;;;;;;;1.00;1.00;;;2.50;99.90;;;;;;5043291;28;20684;-40
2024/04/03 05:18:21;;;;;;;1.83;1.52;;;2.30;99.90;;;;;;5039754;28;20025;-41
2024/04/03 05:20:47;;;;;;;1.58;1.40;;;2.10;99.90;;;;;;5043435;28;20098;-39
2024/04/03 05:23:13;;;;;;;1.58;1.48;;;2.30;99.90;;;;;;5043526;28;20090;-35
2024/04/03 05:25:39;;;;;;;1.40;1.27;;;2.40;99.90;;;;;;5044285;28;20387;-41
2024/04/03 05:28:05;;;;;;;1.92;1.60;;;2.40;99.90;;;;;;5041222;28;20029;-41
2024/04/03 05:30:37;;;;;;;3.22;1.63;;;2.50;99.90;;;;;;5023403;28;20025;-40
2024/04/03 05:33:04;;;;;;;5.45;1.88;;;2.60;99.90;;;;;;5042023;28;20151;-40
2024/04/03 05:35:30;;;;;;;1.60;1.50;;;2.70;99.90;;;;;;5043638;28;20032;-42
2024/04/03 05:37:55;;;;;;;2.03;1.83;;;2.80;99.90;;;;;;5056286;28;20021;-42
2024/04/03 05:40:22;;;;;;;2.72;1.90;;;2.90;99.90;;;;;;5043509;28;20083;-41
2024/04/03 05:42:48;;;;;;;1.95;1.85;;;3.00;99.90;;;;;;5041883;28;20028;-42
2024/04/03 05:45:14;;;;;;;2.58;1.55;;;3.10;99.90;;;;;;5042170;28;20083;-40
2024/04/03 05:47:39;;;;;;;3.15;1.50;;;3.00;99.90;;;;;;5041846;28;20088;-41
2024/04/03 05:50:05;;;;;;;1.70;1.60;;;2.90;99.90;;;;;;5042270;28;20159;-42
2024/04/03 05:52:33;;;;;;;2.90;2.10;;;2.90;99.90;;;;;;5043048;28;20036;-38
2024/04/03 05:54:59;;;;;;;1.80;1.70;;;2.90;99.90;;;;;;5042856;28;20043;-36
2024/04/03 05:57:24;;;;;;;1.70;1.60;;;3.00;99.90;;;;;;5042298;28;20720;-43
2024/04/03 05:59:50;;;;;;;2.67;1.52;;;3.10;99.90;;;;;;5041871;28;20031;-40
2024/04/03 06:02:16;;;;;;;1.55;1.45;;;3.20;99.90;;;;;;5039282;28;20049;-39
2024/04/03 06:04:41;;;;;;;2.60;1.60;;;3.30;99.90;;;;;;5042480;28;20471;-36
2024/04/03 06:07:07;;;;;;;1.75;1.40;;;3.30;99.90;;;;;;5045177;28;20086;-42
2024/04/03 06:09:33;;;;;;;1.63;1.17;;;3.30;99.90;;;;;;5046232;28;20024;-40
2024/04/03 06:11:58;;;;;;;1.30;1.23;;;3.10;99.90;;;;;;5045192;28;20433;-38
2024/04/03 06:14:24;;;;;;;2.22;1.65;;;3.10;99.90;;;;;;5061067;28;20422;-38
2024/04/03 06:16:50;;;;;;;2.25;2.05;;;3.10;99.90;;;;;;5046894;28;20024;-39
2024/04/03 06:19:16;;;;;;;1.88;1.77;;;3.20;99.90;;;;;;5046123;28;20117;-33
2024/04/03 06:21:42;;;;;;;1.70;1.23;;;3.30;99.90;;;;;;5046265;28;20032;-38
2024/04/03 06:24:07;;;;;;;2.08;1.88;;;3.40;99.90;;;;;;5048226;28;20130;-34
2024/04/03 06:26:34;;;;;;;2.72;2.25;;;3.60;99.90;;;;;;5044178;28;20226;-34
2024/04/03 06:29:00;;;;;;;2.85;1.90;;;3.70;99.90;;;;;;5047175;28;20060;-38
2024/04/03 06:31:30;;;;;;;2.47;2.10;;;3.90;99.90;;;;;;5045447;28;20036;-35
2024/04/03 06:33:58;;;;;;;2.08;1.85;;;4.10;99.90;;;;;;5046181;28;20033;-34
2024/04/03 06:36:25;;;;;;;2.53;2.15;;;4.40;99.90;;;;;;5045752;28;20025;-36
2024/04/03 06:38:50;;;;;;;2.42;2.10;;;4.60;99.90;;;;;;5043654;28;20037;-37
2024/04/03 06:41:16;;;;;;;3.05;2.28;;;4.80;99.90;;;;;;5047309;28;20040;-35
2024/04/03 06:43:42;;;;;;;3.13;2.00;;;5.00;99.90;;;;;;5043850;28;20261;-38
2024/04/03 06:46:07;;;;;;;2.47;2.03;;;5.10;99.90;;;;;;5045605;28;20100;-38
2024/04/03 06:48:34;;;;;;;3.72;1.80;;;5.20;99.90;;;;;;5046640;28;20045;-37
2024/04/03 06:50:59;;;;;;;2.70;1.92;;;5.30;99.90;;;;;;5043617;28;20060;-37
2024/04/03 06:53:25;;;;;;;1.40;1.30;;;5.40;99.90;;;;;;5044514;28;20445;-37
2024/04/03 06:55:58;;;;;;;1.50;1.40;;;5.50;99.90;;;;;;5046412;28;20108;-36
2024/04/03 06:58:24;;;;;;;1.77;1.60;;;5.70;99.90;;;;;;5047594;28;20027;-37
2024/04/03 07:00:50;;;;;;;3.30;1.48;;;5.80;99.90;;;;;;5040008;28;20402;-36
2024/04/03 07:03:16;;;;;;;2.33;1.52;;;5.90;99.90;;;;;;5026342;28;20021;-35
2024/04/03 07:05:44;;;;;;;1.42;1.23;;;6.10;99.90;;;;;;5026768;28;20033;-39
2024/04/03 07:08:11;;;;;;;1.65;1.50;;;6.10;99.90;;;;;;5025620;28;20025;-34
2024/04/03 07:10:37;;;;;;;1.40;1.30;;;6.20;99.90;;;;;;5024360;28;20788;-38
2024/04/03 07:13:04;;;;;;;2.17;1.67;;;6.30;99.90;;;;;;5024762;28;20025;-37
2024/04/03 07:15:29;;;;;;;2.40;1.38;;;6.40;99.90;;;;;;5026710;28;20025;-35
2024/04/03 07:17:56;;;;;;;2.45;1.55;;;6.50;99.90;;;;;;5024296;28;20368;-35
2024/04/03 07:20:25;;;;;;;1.58;1.30;;;6.60;99.90;;;;;;5026565;28;20033;-34
2024/04/03 07:22:54;;;;;;;2.80;1.60;;;6.70;99.90;;;;;;5017663;28;20037;-36
2024/04/03 07:25:20;;;;;;;3.13;1.27;;;6.60;99.90;;;;;;5025390;28;20532;-35
2024/04/03 07:27:46;;;;;;;1.50;1.40;;;6.70;99.90;;;;;;5021543;28;20129;-42
2024/04/03 07:30:12;;;;;;;1.67;1.25;;;6.70;99.90;;;;;;5040742;28;20649;-41
2024/04/03 07:32:39;;;;;;;1.60;1.50;;;6.70;99.90;;;;;;5023799;28;20504;-41
2024/04/03 07:35:05;;;;;;;1.70;1.20;;;6.80;99.90;;;;;;5044037;28;20033;-39
2024/04/03 07:37:30;;;;;;;2.25;1.40;;;6.90;99.90;;;;;;5045868;28;20391;-43
2024/04/03 07:39:56;;;;;;;1.30;1.20;;;7.00;99.90;;;;;;5046343;28;20036;-39
2024/04/03 07:42:22;;;;;;;1.27;1.17;;;7.10;99.90;;;;;;5041969;28;20040;-42
2024/04/03 07:44:50;;;;;;;1.38;1.25;;;7.20;99.90;;;;;;5045526;28;20441;-39
2024/04/03 07:47:16;;;;;;;;;;;7.30;99.90;;;;;;5038453;28;20037;-40
2024/04/03 07:49:41;;;;;;;1.02;0.98;;;7.40;99.90;;;;;;5046243;28;20274;-40
2024/04/03 07:52:07;;;;;;;1.23;1.17;;;7.50;99.90;;;;;;5043971;28;20025;-39
2024/04/03 07:54:33;;;;;;;1.25;1.15;;;7.50;99.90;;;;;;5042730;28;20021;-41
2024/04/03 07:56:58;;;;;;;0.82;0.82;;;7.50;99.90;;;;;;5044401;28;20090;-39
2024/04/03 07:59:24;;;;;;;0.95;0.95;;;7.50;99.90;;;;;;5041721;28;20108;-42
2024/04/03 08:01:49;;;;;;;1.00;1.00;;;7.60;99.90;;;;;;5042580;28;20124;-36
2024/04/03 08:04:15;;;;;;;1.48;1.38;;;7.60;99.90;;;;;;5041064;28;20581;-41
2024/04/03 08:06:41;;;;;;;1.58;1.48;;;7.60;99.90;;;;;;5045738;28;20393;-37
2024/04/03 08:09:07;;;;;;;1.30;1.30;;;7.70;99.90;;;;;;5040542;28;20036;-41
2024/04/03 08:11:36;;;;;;;2.10;1.50;;;7.80;99.90;;;;;;5046227;28;20040;-39
2024/04/03 08:14:01;;;;;;;1.55;1.45;;;7.90;99.90;;;;;;5046389;28;20021;-42
2024/04/03 08:16:27;;;;;;;2.17;1.65;;;8.00;99.90;;;;;;5045769;28;20043;-42
2024/04/03 08:18:52;;;;;;;1.85;1.52;;;8.20;99.90;;;;;;5043753;28;20025;-44
2024/04/03 08:21:18;;;;;;;1.55;1.40;;;8.30;99.90;;;;;;5044308;28;20082;-42
2024/04/03 08:23:44;;;;;;;2.65;1.50;;;8.40;99.90;;;;;;5044841;28;20029;-40
2024/04/03 08:26:10;;;;;;;1.75;1.50;;;8.50;99.90;;;;;;5043439;28;20017;-42
2024/04/03 08:28:38;;;;;;;1.30;1.20;;;8.50;99.90;;;;;;5043723;28;20129;-42
2024/04/03 08:31:14;;;;;;;;;;;8.60;99.90;;;;;;5043629;28;20064;-41
2024/04/03 08:33:41;;;;;;;1.35;1.20;;;8.60;99.90;;;;;;5058755;28;20145;-42
2024/04/03 08:36:07;;;;;;;1.00;1.00;;;8.70;99.90;;;;;;5038126;28;20487;-42
2024/04/03 08:38:33;;;;;;;2.20;1.50;;;8.70;99.90;;;;;;5044033;28;20025;-36
2024/04/03 08:41:00;;;;;;;1.70;1.50;;;8.80;99.90;;;;;;5041995;28;20041;-38
2024/04/03 08:43:27;;;;;;;1.10;1.00;;;8.80;99.90;;;;;;5039973;28;20024;-34
2024/04/03 08:45:57;;;;;;;1.08;1.08;;;8.80;99.90;;;;;;5044828;28;20100;-39
2024/04/03 08:48:25;;;;;;;1.45;1.10;;;8.80;99.90;;;;;;5043855;28;20085;-41
2024/04/03 08:50:52;;;;;;;1.20;1.05;;;8.80;99.90;;;;;;5044197;28;20032;-43
2024/04/03 08:53:22;;;;;;;1.00;0.90;;;8.80;99.90;;;;;;5045520;28;20574;-42
2024/04/03 08:55:49;;;;;;;0.75;0.75;;;8.90;99.90;;;;;;5044157;28;20516;-43
2024/04/03 08:58:16;;;;;;;1.08;1.02;;;8.80;99.90;;;;;;5044833;28;20487;-42
2024/04/03 09:00:42;;;;;;;1.38;1.20;;;8.70;99.90;;;;;;5042710;28;20037;-40
2024/04/03 09:03:11;;;;;;;2.00;1.15;;;8.70;99.90;;;;;;5044602;28;20063;-41
2024/04/03 09:05:36;;;;;;;2.13;1.60;;;8.80;99.90;;;;;;5042265;28;20569;-43
2024/04/03 09:08:05;;;;;;;0.98;0.98;;;8.70;99.90;;;;;;5043400;28;20082;-37
2024/04/03 09:10:43;;;;;;;1.67;1.40;;;8.70;99.90;;;;;;5043015;28;20033;-43
2024/04/03 09:13:09;;;;;;;1.58;0.90;;;8.80;99.90;;;;;;5038165;28;20482;-41
2024/04/03 09:15:35;;;;;;;2.47;1.30;;;8.80;99.90;;;;;;5043582;28;20029;-43
2024/04/03 09:18:03;;;;;;;2.22;1.30;;;8.90;99.90;;;;;;5040550;28;20028;-41
2024/04/03 09:20:29;;;;;;;1.20;1.08;;;9.00;99.90;;;;;;5042434;28;20025;-43
2024/04/03 09:22:56;;;;;;;1.92;1.20;;;9.10;99.90;;;;;;5042848;28;20975;-38
2024/04/03 09:25:29;;;;;;;3.55;1.20;;;9.30;99.90;;;;;;5057466;28;20572;-40
2024/04/03 09:28:02;;;;;;;1.83;1.00;;;9.50;99.90;;;;;;5042097;28;21549;-40
2024/04/03 09:30:29;;;;;;;1.45;1.23;;;9.60;99.90;;;;;;5043369;28;20108;-41
2024/04/03 09:32:56;;;;;;;1.30;1.20;;;9.70;99.90;;;;;;5037809;28;20758;-39
2024/04/03 09:35:28;;;;;;;0.90;0.90;;;9.90;99.90;;;;;;5042651;28;20029;-42
2024/04/03 09:37:54;;;;;;;2.17;1.15;;;10.00;99.90;;;;;;5040383;28;20025;-41
2024/04/03 09:40:27;;;;;;;1.02;0.82;;;10.00;99.70;;;;;;5044126;28;20642;-41
2024/04/03 09:42:57;;;;;;;1.30;1.20;;;10.00;95.10;;;;;;5045054;28;20029;-39
2024/04/03 09:45:24;;;;;;;0.60;0.60;;;9.90;97.60;;;;;;5048102;28;20389;-41
2024/04/03 09:47:59;;;;;;;1.13;0.90;;;10.00;99.90;;;;;;5046479;28;20590;-33
2024/04/03 09:50:30;;;;;;;0.75;0.75;;;10.10;95.70;;;;;;5044453;28;20029;-34
2024/04/03 09:52:57;;;;;;;0.80;0.80;;;10.20;98.30;;;;;;5046768;28;20064;-37
2024/04/03 09:55:26;;;;;;;1.73;1.17;;;10.30;99.90;;;;;;5047532;28;20086;-35
2024/04/03 09:58:02;;;;;;;4.25;1.80;;;10.50;99.90;;;;;;5048799;28;20489;-42
2024/04/03 10:00:27;;;;;;;0.98;0.80;;;10.50;97.70;;;;;;5044172;28;20051;-40
2024/04/03 10:02:53;;;;;;;1.58;1.02;;;10.50;97.10;;;;;;5027472;28;20134;-41
2024/04/03 10:05:40;;;;;;;1.15;1.05;;;10.50;99.00;;;;;;5025139;28;20025;-41
2024/04/03 10:08:10;;;;;;;1.05;1.00;;;10.70;99.50;;;;;;5021434;28;20037;-42
2024/04/03 10:10:46;;;;;;;1.30;1.20;;;10.90;97.20;;;;;;5036291;28;20375;-39
2024/04/03 10:13:36;;;;;;;1.90;1.00;;;10.80;96.20;;;;;;5023778;28;20471;-38
2024/04/03 10:16:12;;;;;;;1.15;1.15;;;10.90;93.60;;;;;;5040873;28;20670;-38
2024/04/03 10:18:40;;;;;;;1.48;0.88;;;11.00;96.10;;;;;;5022789;28;20493;-41
2024/04/03 10:21:12;;;;;;;1.48;1.20;;;11.00;93.40;;;;;;5026304;28;20577;-41
2024/04/03 10:23:51;;;;;;;1.00;1.00;;;10.90;93.90;;;;;;5025079;28;20112;-40
2024/04/03 10:26:20;;;;;;;1.10;1.10;;;11.10;93.20;;;;;;5022619;28;20116;-41
2024/04/03 10:28:46;;;;;;;0.73;0.73;;;11.00;93.10;;;;;;5024696;28;20093;-42
2024/04/03 10:31:18;;;;;;;0.90;0.90;;;11.00;94.40;;;;;;5021154;28;20121;-40
2024/04/03 10:33:43;;;;;;;1.30;1.20;;;11.00;91.60;;;;;;5026773;28;20038;-41
2024/04/03 10:36:09;;;;;;;1.10;1.00;;;11.10;93.20;;;;;;5024552;28;20028;-41
2024/04/03 10:38:36;;;;;;;1.48;1.15;;;11.10;93.70;;;;;;5021090;28;20570;-42
2024/04/03 10:41:03;;;;;;;1.08;1.02;;;11.20;92.90;;;;;;5023539;28;20326;-42
2024/04/03 10:43:28;;;;;;;1.08;0.98;;;11.40;92.50;;;;;;5016899;28;20022;-42
2024/04/03 10:45:54;;;;;;;1.38;0.98;;;11.30;93.80;;;;;;5026288;28;20414;-41
2024/04/03 10:48:23;;;;;;;2.35;1.00;;;11.30;94.50;;;;;;5025235;28;20037;-41
2024/04/03 10:50:50;;;;;;;1.35;1.10;;;11.60;91.60;;;;;;5022832;28;20372;-41
2024/04/03 10:53:16;;;;;;;1.17;1.08;;;11.60;93.70;;;;;;5022261;28;20030;-42
2024/04/03 10:55:42;;;;;;;3.83;1.40;;;11.70;94.10;;;;;;5024906;28;20041;-39
2024/04/03 10:58:09;;;;;;;0.88;0.80;;;11.80;92.60;;;;;;5024445;28;20442;-35
2024/04/03 11:00:45;;;;;;;0.83;0.83;;;12.00;87.80;;;;;;5023678;28;20087;-37
2024/04/03 11:03:11;;;;;;;1.83;1.10;;;12.10;89.20;;;;;;5039758;28;20024;-37
2024/04/03 11:05:37;;;;;;;1.27;0.93;;;12.20;82.00;;;;;;5044826;28;20029;-37
2024/04/03 11:08:04;;;;;;;2.45;0.93;;;12.10;78.60;;;;;;5043961;28;20033;-34
2024/04/03 11:10:30;;;;;;;1.42;1.33;;;12.40;88.10;;;;;;5046738;28;20163;-34
2024/04/03 11:13:10;;;;;;;1.10;1.10;;;12.70;90.80;;;;;;5044467;28;20132;-39
2024/04/03 11:15:39;;;;;;;1.23;1.13;;;12.80;77.10;;;;;;5039972;28;20035;-35
2024/04/03 11:18:05;;;;;;;2.13;0.98;;;12.50;79.00;;;;;;5046002;28;20348;-37
2024/04/03 11:20:32;;;;;;;0.82;0.82;;;12.50;79.30;;;;;;5044028;28;20096;-36
2024/04/03 11:22:58;;;;;;;0.80;0.80;;;12.40;82.10;;;;;;5041082;28;20482;-37
2024/04/03 11:25:28;;;;;;;1.85;1.10;;;12.50;82.80;;;;;;5045527;28;20092;-35
2024/04/03 11:27:55;;;;;;;1.10;0.90;;;12.50;84.20;;;;;;5043444;28;20025;-33
2024/04/03 11:30:21;;;;;;;1.33;1.02;;;12.40;76.50;;;;;;5043827;28;20382;-37
2024/04/03 11:32:47;;;;;;;0.90;0.90;;;12.40;82.40;;;;;;5040327;28;20469;-34
2024/04/03 11:35:13;;;;;;;2.00;1.10;;;12.50;83.10;;;;;;5045374;28;20163;-33
2024/04/03 11:37:39;;;;;;;2.35;1.00;;;12.50;87.70;;;;;;5045049;28;20021;-33
2024/04/03 11:40:05;;;;;;;1.17;1.10;;;12.60;80.80;;;;;;5042481;28;20415;-34
2024/04/03 11:42:35;;;;;;;1.15;0.90;;;12.70;81.50;;;;;;5041894;28;20032;-33
2024/04/03 11:45:04;;;;;;;1.10;1.10;;;12.60;80.70;;;;;;5044927;28;20032;-35
2024/04/03 11:47:33;;;;;;;1.52;0.85;;;12.70;83.10;;;;;;5045843;28;20506;-35
2024/04/03 11:50:03;;;;;;;1.20;1.10;;;12.80;81.40;;;;;;5043761;28;20500;-35
2024/04/03 11:52:30;;;;;;;2.80;0.90;;;12.90;83.30;;;;;;5059038;28;20522;-34
2024/04/03 11:54:55;;;;;;;0.98;0.90;;;13.00;83.40;;;;;;5043654;28;20095;-33
2024/04/03 11:57:22;;;;;;;1.45;1.20;;;12.80;76.60;;;;;;5059449;28;20648;-34
2024/04/03 11:59:49;;;;;;;1.30;1.20;;;12.70;79.00;;;;;;5042040;28;20045;-33
2024/04/03 12:02:14;;;;;;;2.55;1.02;;;12.70;79.90;;;;;;5030171;28;20042;-36
2024/04/03 12:04:41;;;;;;;1.13;0.90;;;12.70;82.40;;;;;;5023620;28;20029;-32
2024/04/03 12:07:07;;;;;;;0.70;0.70;;;12.40;86.20;;;;;;5028541;28;20395;-35
2024/04/03 12:09:33;;;;;;;1.25;1.05;;;12.30;85.50;;;;;;5024586;28;20025;-39
2024/04/03 12:11:59;;;;;;;1.00;0.85;;;12.20;82.50;;;;;;5024484;28;20406;-38
2024/04/03 12:14:24;;;;;;;0.55;0.55;;;12.20;81.00;;;;;;5026503;28;20021;-42
2024/04/03 12:16:55;;;;;;;0.90;0.90;;;12.20;82.20;;;;;;5022856;28;20505;-41
2024/04/03 12:19:29;;;;;;;0.80;0.80;;;12.20;87.30;;;;;;5025326;28;20029;-37
2024/04/03 12:21:55;;;;;;;0.98;0.90;;;12.10;89.60;;;;;;5028894;28;20048;-41
2024/04/03 12:24:21;;;;;;;1.30;1.13;;;12.10;90.30;;;;;;5025830;28;20387;-40
2024/04/03 12:26:47;;;;;;;1.35;1.00;;;12.30;88.20;;;;;;5029166;28;20104;-40
2024/04/03 12:29:13;;;;;;;0.98;0.80;;;12.30;88.30;;;;;;5028214;28;20112;-41
2024/04/03 12:31:40;;;;;;;1.08;0.82;;;12.40;82.70;;;;;;5028131;28;20044;-40
2024/04/03 12:34:07;;;;;;;1.02;0.73;;;12.40;90.20;;;;;;5020888;28;20036;-40
2024/04/03 12:36:33;;;;;;;1.13;0.77;;;12.40;89.80;;;;;;5022702;28;20045;-40
2024/04/03 12:38:59;;;;;;;2.15;0.95;;;12.40;93.60;;;;;;5025164;28;20037;-37
2024/04/03 12:41:24;;;;;;;1.02;0.90;;;12.40;92.50;;;;;;5014193;28;20032;-38
2024/04/03 12:43:50;;;;;;;1.00;1.00;;;12.50;92.60;;;;;;5024188;28;20032;-39
2024/04/03 12:46:16;;;;;;;1.05;0.70;;;12.60;91.20;;;;;;5023548;28;20025;-40
2024/04/03 12:48:42;;;;;;;1.90;0.65;;;12.60;90.10;;;;;;5022940;28;20192;-37
2024/04/03 12:51:07;;;;;;;0.55;0.55;;;12.70;90.00;;;;;;5024074;28;20036;-37
2024/04/03 12:53:33;;;;;;;1.65;0.65;;;12.80;87.70;;;;;;5025371;28;20405;-41
2024/04/03 12:56:01;;;;;;;1.27;0.82;;;12.80;92.10;;;;;;5023573;28;20271;-39
2024/04/03 12:58:28;;;;;;;1.77;1.50;;;12.90;92.50;;;;;;5024074;28;20096;-40